Time;durP1;ratioP1;P1;durP2;ratioP2;P2;SDS_P1;SDS_P2;PMS_P1;PMS_P2;Temp;Humidity;BMP_temperature;BMP_pressure;BME280_temperature;BME280_humidity;BME280_pressure;Samples;Min_cycle;Max_cycle;Signal;HPM_P1;HPM_P2
2023/10/28 00:01:14;;;;;;;1999.90;999.90;;;10.40;99.90;;;;;;5045608;28;20209;-67
2023/10/28 00:03:40;;;;;;;1999.90;999.90;;;10.40;99.90;;;;;;5058365;28;20099;-67
2023/10/28 00:06:07;;;;;;;1999.90;999.90;;;10.40;99.90;;;;;;5045390;28;20504;-67
2023/10/28 00:08:33;;;;;;;1999.90;999.90;;;10.40;99.90;;;;;;5043480;28;20040;-67
2023/10/28 00:11:00;;;;;;;1999.90;999.90;;;10.40;99.90;;;;;;5044697;28;20520;-67
2023/10/28 00:13:26;;;;;;;1999.90;999.90;;;10.40;99.90;;;;;;5033883;28;20049;-67
2023/10/28 00:15:51;;;;;;;1999.90;999.90;;;10.40;99.90;;;;;;5046691;28;20057;-67
2023/10/28 00:18:17;;;;;;;1999.90;999.90;;;10.40;99.90;;;;;;5050708;28;20098;-67
2023/10/28 00:20:44;;;;;;;1999.90;999.90;;;10.40;99.90;;;;;;5046254;28;20044;-67
2023/10/28 00:23:11;;;;;;;1999.90;999.90;;;10.40;99.90;;;;;;5043831;28;20078;-66
2023/10/28 00:25:37;;;;;;;1999.90;999.90;;;10.40;99.90;;;;;;5043949;28;20052;-67
2023/10/28 00:28:03;;;;;;;1999.90;999.90;;;10.40;99.90;;;;;;5046969;28;20032;-67
2023/10/28 00:30:29;;;;;;;1999.90;999.90;;;10.40;99.90;;;;;;5042450;28;20049;-67
2023/10/28 00:33:01;;;;;;;1999.90;999.90;;;10.40;99.90;;;;;;5029228;28;20094;-67
2023/10/28 00:35:28;;;;;;;1999.90;999.90;;;10.40;99.90;;;;;;5053191;28;20037;-67
2023/10/28 00:37:54;;;;;;;1999.90;999.90;;;10.40;99.90;;;;;;5052947;28;20160;-67
2023/10/28 00:40:28;;;;;;;1999.90;999.90;;;10.40;99.90;;;;;;5027949;28;20041;-67
2023/10/28 00:43:08;;;;;;;1999.90;999.90;;;10.40;99.90;;;;;;5045460;28;20065;-67
2023/10/28 00:45:34;;;;;;;1999.90;999.90;;;10.30;99.90;;;;;;5049634;28;20398;-67
2023/10/28 00:48:00;;;;;;;1999.90;999.90;;;10.40;99.90;;;;;;5056351;28;20049;-67
2023/10/28 00:50:26;;;;;;;1999.90;999.90;;;10.40;99.90;;;;;;5028458;28;20046;-67
2023/10/28 00:52:55;;;;;;;1999.90;999.90;;;10.40;99.90;;;;;;5049346;28;20033;-67
2023/10/28 00:55:22;;;;;;;1999.90;999.90;;;10.40;99.90;;;;;;5041684;28;20072;-67
2023/10/28 00:57:49;;;;;;;1999.90;999.90;;;10.50;99.90;;;;;;5034825;28;20036;-67
2023/10/28 01:00:15;;;;;;;1999.90;999.90;;;10.50;99.90;;;;;;5035983;28;20504;-67
2023/10/28 01:02:42;;;;;;;1999.90;999.90;;;10.50;99.90;;;;;;5053990;28;20045;-67
2023/10/28 01:05:11;;;;;;;1999.90;999.90;;;10.50;99.90;;;;;;5025852;28;20045;-67
2023/10/28 01:07:44;;;;;;;1999.90;999.90;;;10.50;99.90;;;;;;5029258;28;20489;-67
2023/10/28 01:10:10;;;;;;;1999.90;999.90;;;10.50;99.90;;;;;;5044202;28;20479;-67
2023/10/28 01:12:37;;;;;;;1999.90;999.90;;;10.50;99.90;;;;;;5030985;28;20045;-67
2023/10/28 01:15:04;;;;;;;1999.90;999.90;;;10.50;99.90;;;;;;5043618;28;20047;-66
2023/10/28 01:17:31;;;;;;;1999.90;999.90;;;10.50;99.90;;;;;;5049640;28;20048;-67
2023/10/28 01:19:57;;;;;;;1999.90;999.90;;;10.50;99.90;;;;;;5024898;28;20049;-66
2023/10/28 01:22:23;;;;;;;1999.90;999.90;;;10.40;99.90;;;;;;5040693;28;20036;-67
2023/10/28 01:24:50;;;;;;;1999.90;999.90;;;10.50;99.90;;;;;;5038629;28;20098;-67
2023/10/28 01:27:17;;;;;;;1999.90;999.90;;;10.40;99.90;;;;;;5038726;28;20045;-67
2023/10/28 01:29:43;;;;;;;1999.90;999.90;;;10.40;99.90;;;;;;5049770;28;20041;-67
2023/10/28 01:32:08;;;;;;;1999.90;999.90;;;10.40;99.90;;;;;;5030078;28;20113;-67
2023/10/28 01:34:46;;;;;;;1999.90;999.90;;;10.40;99.90;;;;;;5040287;28;20041;-67
2023/10/28 01:37:12;;;;;;;1999.90;999.90;;;10.40;99.90;;;;;;5054699;28;20040;-67
2023/10/28 01:39:38;;;;;;;1999.90;999.90;;;10.40;99.90;;;;;;5028314;28;20106;-67
2023/10/28 01:42:04;;;;;;;1999.90;999.90;;;10.40;99.90;;;;;;5043421;28;20057;-67
2023/10/28 01:44:34;;;;;;;1999.90;999.90;;;10.40;99.90;;;;;;5039818;28;20045;-66
2023/10/28 01:47:00;;;;;;;1999.90;999.90;;;10.40;99.90;;;;;;5048364;28;20489;-67
2023/10/28 01:49:26;;;;;;;1999.90;999.90;;;10.30;99.90;;;;;;5034664;28;20063;-67
2023/10/28 01:51:51;;;;;;;1999.90;999.90;;;10.30;99.90;;;;;;5048101;28;20098;-67
2023/10/28 01:54:17;;;;;;;1999.90;999.90;;;10.30;99.90;;;;;;5048180;28;20547;-67
2023/10/28 01:56:43;;;;;;;1999.90;999.90;;;10.30;99.90;;;;;;5030026;28;20488;-67
2023/10/28 01:59:08;;;;;;;1999.90;999.90;;;10.30;99.90;;;;;;5049605;28;20049;-67
2023/10/28 02:01:35;;;;;;;1999.90;999.90;;;10.20;99.90;;;;;;5033587;28;20099;-66
2023/10/28 02:04:06;;;;;;;1999.90;999.90;;;10.20;99.90;;;;;;5047700;28;20037;-67
2023/10/28 02:06:32;;;;;;;1999.90;999.90;;;10.10;99.90;;;;;;5052814;28;20075;-67
2023/10/28 02:08:57;;;;;;;1999.90;999.90;;;10.10;99.90;;;;;;5047695;28;20064;-66
2023/10/28 02:11:23;;;;;;;1999.90;999.90;;;10.00;99.90;;;;;;5057821;28;20072;-66
2023/10/28 02:13:49;;;;;;;1999.90;999.90;;;10.00;99.90;;;;;;5049878;28;20057;-66
2023/10/28 02:16:15;;;;;;;1999.90;999.90;;;9.90;99.90;;;;;;5048423;28;20434;-67
2023/10/28 02:18:41;;;;;;;1999.90;999.90;;;9.90;99.90;;;;;;5046249;28;20080;-66
2023/10/28 02:21:06;;;;;;;1999.90;999.90;;;9.80;99.90;;;;;;5032026;28;20040;-67
2023/10/28 02:23:32;;;;;;;1999.90;999.90;;;9.80;99.90;;;;;;5063831;28;20431;-67
2023/10/28 02:25:58;;;;;;;1999.90;999.90;;;9.70;99.90;;;;;;5048137;28;20163;-67
2023/10/28 02:28:24;;;;;;;1999.90;999.90;;;9.70;99.90;;;;;;5050574;28;20116;-67
2023/10/28 02:30:52;;;;;;;1999.90;999.90;;;9.60;99.90;;;;;;5037674;28;20127;-67
2023/10/28 02:33:17;;;;;;;1999.90;999.90;;;9.60;99.90;;;;;;5049679;28;20041;-67
2023/10/28 02:35:43;;;;;;;1999.90;999.90;;;9.60;99.90;;;;;;5042336;28;20049;-66
2023/10/28 02:38:08;;;;;;;1999.90;999.90;;;9.60;99.90;;;;;;5036653;28;20102;-67
2023/10/28 02:40:34;;;;;;;1999.90;999.90;;;9.60;99.90;;;;;;5039600;28;20056;-66
2023/10/28 02:42:59;;;;;;;1999.90;999.90;;;9.60;99.90;;;;;;5031421;28;20071;-67
2023/10/28 02:45:25;;;;;;;1999.90;999.90;;;9.60;99.90;;;;;;5045693;28;20110;-66
2023/10/28 02:47:50;;;;;;;1999.90;999.90;;;9.60;99.90;;;;;;5045018;28;20151;-67
2023/10/28 02:50:18;;;;;;;1999.90;999.90;;;9.60;99.90;;;;;;5044474;28;20492;-66
2023/10/28 02:52:44;;;;;;;1999.90;999.90;;;9.60;99.90;;;;;;5032290;28;20060;-66
2023/10/28 02:55:10;;;;;;;1999.90;999.90;;;9.60;99.90;;;;;;5037295;28;20500;-67
2023/10/28 02:57:36;;;;;;;1999.90;999.90;;;9.60;99.90;;;;;;5048988;28;20049;-67
2023/10/28 03:00:06;;;;;;;1999.90;999.90;;;9.60;99.90;;;;;;5049760;28;20041;-67
2023/10/28 03:02:31;;;;;;;1999.90;999.90;;;9.60;99.90;;;;;;5047350;28;20043;-67
2023/10/28 03:04:58;;;;;;;1999.90;999.90;;;9.60;99.90;;;;;;5041496;28;20473;-66
2023/10/28 03:07:23;;;;;;;1999.90;999.90;;;9.60;99.90;;;;;;5029601;28;20037;-67
2023/10/28 03:09:49;;;;;;;1999.90;999.90;;;9.50;99.90;;;;;;5040178;28;20356;-67
2023/10/28 03:12:17;;;;;;;1999.90;999.90;;;9.50;99.90;;;;;;5027233;28;20417;-67
2023/10/28 03:14:43;;;;;;;1999.90;999.90;;;9.50;99.90;;;;;;5037105;28;20472;-67
2023/10/28 03:17:09;;;;;;;1999.90;999.90;;;9.40;99.90;;;;;;5040973;28;21118;-66
2023/10/28 03:19:34;;;;;;;1999.90;999.90;;;9.40;99.90;;;;;;5054872;28;20048;-67
2023/10/28 03:22:00;;;;;;;1999.90;999.90;;;9.30;99.90;;;;;;5043426;28;20040;-67
2023/10/28 03:24:25;;;;;;;1999.90;999.90;;;9.40;99.90;;;;;;5038289;28;20037;-67
2023/10/28 03:26:51;;;;;;;1999.90;999.90;;;9.40;99.90;;;;;;5042109;28;20044;-67
2023/10/28 03:29:17;;;;;;;1999.90;999.90;;;9.40;99.90;;;;;;5035018;28;20175;-67
2023/10/28 03:31:42;;;;;;;1999.90;999.90;;;9.30;99.90;;;;;;5046959;28;20049;-66
2023/10/28 03:34:08;;;;;;;1999.90;999.90;;;9.30;99.90;;;;;;5039832;28;20040;-66
2023/10/28 03:36:33;;;;;;;1999.90;999.90;;;9.30;99.90;;;;;;5041642;28;20045;-66
2023/10/28 03:38:59;;;;;;;1999.90;999.90;;;9.30;99.90;;;;;;5040752;28;20091;-66
2023/10/28 03:41:24;;;;;;;1999.90;999.90;;;9.30;99.90;;;;;;5055606;28;20049;-67
2023/10/28 03:43:50;;;;;;;1999.90;999.90;;;9.20;99.90;;;;;;5045358;28;20083;-66
2023/10/28 03:46:18;;;;;;;1999.90;999.90;;;9.30;99.90;;;;;;5052369;28;20045;-67
2023/10/28 03:48:43;;;;;;;1999.90;999.90;;;9.20;99.90;;;;;;5029594;28;20041;-67
2023/10/28 03:51:09;;;;;;;1999.90;999.90;;;9.30;99.90;;;;;;5036302;28;20052;-66
2023/10/28 03:53:35;;;;;;;1999.90;999.90;;;9.30;99.90;;;;;;5046036;28;20563;-67
2023/10/28 03:56:00;;;;;;;1999.90;999.90;;;9.30;99.90;;;;;;5032461;28;20723;-67
2023/10/28 03:58:26;;;;;;;1999.90;999.90;;;9.30;99.90;;;;;;5041218;28;20064;-67
2023/10/28 04:00:55;;;;;;;1999.90;999.90;;;9.30;99.90;;;;;;5043173;28;20045;-67
2023/10/28 04:03:23;;;;;;;1999.90;999.90;;;9.30;99.90;;;;;;5034128;28;20386;-67
2023/10/28 04:05:49;;;;;;;1999.90;999.90;;;9.40;99.90;;;;;;5053307;28;20432;-66
2023/10/28 04:08:15;;;;;;;1999.90;999.90;;;9.40;99.90;;;;;;5046792;28;20086;-66
2023/10/28 04:10:41;;;;;;;1999.90;999.90;;;9.30;99.90;;;;;;5049427;28;20033;-67
2023/10/28 04:13:06;;;;;;;1999.90;999.90;;;9.40;99.90;;;;;;5052879;28;20049;-67
2023/10/28 04:15:32;;;;;;;1999.90;999.90;;;9.30;99.90;;;;;;5047484;28;20048;-66
2023/10/28 04:17:58;;;;;;;1999.90;999.90;;;9.30;99.90;;;;;;5046984;28;20064;-67
2023/10/28 04:20:24;;;;;;;1999.90;999.90;;;9.20;99.90;;;;;;5044138;28;20061;-67
2023/10/28 04:22:50;;;;;;;1999.90;999.90;;;9.20;99.90;;;;;;5054946;28;20125;-67
2023/10/28 04:25:19;;;;;;;1999.90;999.90;;;9.20;99.90;;;;;;5047820;28;20040;-67
2023/10/28 04:27:44;;;;;;;1999.90;999.90;;;9.20;99.90;;;;;;5048758;28;20502;-66
2023/10/28 04:30:10;;;;;;;1999.90;999.90;;;9.20;99.90;;;;;;5034879;28;20170;-66
2023/10/28 04:32:38;;;;;;;1999.90;999.90;;;9.20;99.90;;;;;;5033227;28;20094;-67
2023/10/28 04:35:04;;;;;;;1999.90;999.90;;;9.30;99.90;;;;;;5051812;28;20052;-66
2023/10/28 04:37:29;;;;;;;1999.90;999.90;;;9.30;99.90;;;;;;5051210;28;20412;-66
2023/10/28 04:39:55;;;;;;;1999.90;999.90;;;9.30;99.90;;;;;;5045330;28;20144;-67
2023/10/28 04:42:20;;;;;;;1999.90;999.90;;;9.40;99.90;;;;;;5042510;28;20525;-66
2023/10/28 04:44:46;;;;;;;1999.90;999.90;;;9.40;99.90;;;;;;5033158;28;20033;-67
2023/10/28 04:47:12;;;;;;;1999.90;999.90;;;9.40;99.90;;;;;;5038001;28;20566;-66
2023/10/28 04:49:39;;;;;;;1999.90;999.90;;;9.40;99.90;;;;;;5044795;28;20512;-67
2023/10/28 04:52:08;;;;;;;1999.90;999.90;;;9.40;99.90;;;;;;5054887;28;20493;-67
2023/10/28 04:54:34;;;;;;;1999.90;999.90;;;9.50;99.90;;;;;;5047974;28;20051;-67
2023/10/28 04:57:00;;;;;;;1999.90;999.90;;;9.50;99.90;;;;;;5036973;28;20063;-67
2023/10/28 04:59:25;;;;;;;1999.90;999.90;;;9.50;99.90;;;;;;5037341;28;20048;-66
2023/10/28 05:01:51;;;;;;;1999.90;999.90;;;9.50;99.90;;;;;;5047734;28;20044;-67
2023/10/28 05:04:16;;;;;;;1999.90;999.90;;;9.50;99.90;;;;;;5040153;28;20500;-67
2023/10/28 05:06:43;;;;;;;1999.90;999.90;;;9.50;99.90;;;;;;5041224;28;20056;-67
2023/10/28 05:09:08;;;;;;;1999.90;999.90;;;9.60;99.90;;;;;;5030541;28;20045;-67
2023/10/28 05:11:34;;;;;;;1999.90;999.90;;;9.60;99.90;;;;;;5028732;28;20044;-67
2023/10/28 05:14:01;;;;;;;1999.90;999.90;;;9.60;99.90;;;;;;5046806;28;20531;-67
2023/10/28 05:16:26;;;;;;;1999.90;999.90;;;9.60;99.90;;;;;;5035416;28;20042;-67
2023/10/28 05:18:52;;;;;;;1999.90;999.90;;;9.60;99.90;;;;;;5051442;28;20055;-67
2023/10/28 05:21:18;;;;;;;1999.90;999.90;;;9.70;99.90;;;;;;5038828;28;20033;-66
2023/10/28 05:23:43;;;;;;;1999.90;999.90;;;9.60;99.90;;;;;;5054551;28;20073;-66
2023/10/28 05:26:09;;;;;;;1999.90;999.90;;;9.70;99.90;;;;;;5041457;28;20039;-67
2023/10/28 05:28:34;;;;;;;1999.90;999.90;;;9.70;99.90;;;;;;5030796;28;20041;-67
2023/10/28 05:31:00;;;;;;;1999.90;999.90;;;9.70;99.90;;;;;;5039571;28;20409;-67
2023/10/28 05:33:26;;;;;;;1999.90;999.90;;;9.70;99.90;;;;;;5043607;28;20037;-67
2023/10/28 05:35:51;;;;;;;1999.90;999.90;;;9.70;99.90;;;;;;5040008;28;20037;-67
2023/10/28 05:38:17;;;;;;;1999.90;999.90;;;9.80;99.90;;;;;;5047354;28;20045;-67
2023/10/28 05:40:43;;;;;;;1999.90;999.90;;;9.80;99.90;;;;;;5043759;28;20052;-67
2023/10/28 05:43:09;;;;;;;1999.90;999.90;;;9.80;99.90;;;;;;5049619;28;20057;-67
2023/10/28 05:45:35;;;;;;;1999.90;999.90;;;9.80;99.90;;;;;;5040455;28;20033;-67
2023/10/28 05:48:00;;;;;;;1999.90;999.90;;;9.80;99.90;;;;;;5042325;28;20081;-67
2023/10/28 05:50:27;;;;;;;1999.90;999.90;;;9.80;99.90;;;;;;5035301;28;20366;-67
2023/10/28 05:52:53;;;;;;;1999.90;999.90;;;9.80;99.90;;;;;;5049719;28;20049;-67
2023/10/28 05:55:19;;;;;;;1999.90;999.90;;;9.80;99.90;;;;;;5035123;28;20160;-67
2023/10/28 05:57:44;;;;;;;1999.90;999.90;;;9.90;99.90;;;;;;5056062;28;20076;-66
2023/10/28 06:00:10;;;;;;;1999.90;999.90;;;9.90;99.90;;;;;;5043951;28;20090;-67
2023/10/28 06:02:37;;;;;;;1999.90;999.90;;;9.90;99.90;;;;;;5053151;28;20045;-67
2023/10/28 06:05:05;;;;;;;1999.90;999.90;;;9.90;99.90;;;;;;5044582;28;20485;-66
2023/10/28 06:07:31;;;;;;;1999.90;999.90;;;9.90;99.90;;;;;;5061604;28;20078;-67
2023/10/28 06:09:57;;;;;;;1999.90;999.90;;;9.90;99.90;;;;;;5043088;28;20584;-67
2023/10/28 06:12:22;;;;;;;1999.90;999.90;;;9.90;99.90;;;;;;5048961;28;20055;-67
2023/10/28 06:14:48;;;;;;;1999.90;999.90;;;9.90;99.90;;;;;;5054593;28;20037;-66
2023/10/28 06:17:14;;;;;;;1999.90;999.90;;;10.00;99.90;;;;;;5039331;28;20036;-67
2023/10/28 06:19:42;;;;;;;1999.90;999.90;;;10.00;99.90;;;;;;5033363;28;20132;-66
2023/10/28 06:22:11;;;;;;;1999.90;999.90;;;10.00;99.90;;;;;;5050817;28;20079;-67
2023/10/28 06:24:38;;;;;;;1999.90;999.90;;;10.00;99.90;;;;;;5049761;28;20037;-67
2023/10/28 06:27:04;;;;;;;1999.90;999.90;;;10.00;99.90;;;;;;5050450;28;20037;-67
2023/10/28 06:29:30;;;;;;;1999.90;999.90;;;10.00;99.90;;;;;;5038832;28;20037;-67
2023/10/28 06:31:58;;;;;;;1999.90;999.90;;;10.00;99.90;;;;;;5025231;28;20468;-67
2023/10/28 06:34:27;;;;;;;1999.90;999.90;;;10.00;99.90;;;;;;5039310;28;20084;-66
2023/10/28 06:36:53;;;;;;;1999.90;999.90;;;10.10;99.90;;;;;;5006937;28;20116;-67
2023/10/28 06:39:18;;;;;;;1999.90;999.90;;;10.10;99.90;;;;;;5047628;28;20095;-67
2023/10/28 06:41:44;;;;;;;1999.90;999.90;;;10.10;99.90;;;;;;5048632;28;20057;-67
2023/10/28 06:44:10;;;;;;;1999.90;999.90;;;10.10;99.90;;;;;;5050981;28;20076;-67
2023/10/28 06:46:36;;;;;;;1999.90;999.90;;;10.10;99.90;;;;;;5013757;28;20118;-67
2023/10/28 06:49:02;;;;;;;1999.90;999.90;;;10.10;99.90;;;;;;5028840;28;20090;-67
2023/10/28 06:51:28;;;;;;;1999.90;999.90;;;10.20;99.90;;;;;;5051330;28;20442;-66
2023/10/28 06:53:53;;;;;;;1999.90;999.90;;;10.20;99.90;;;;;;5044842;28;20115;-66
2023/10/28 06:56:19;;;;;;;1999.90;999.90;;;10.20;99.90;;;;;;5046137;28;20439;-66
2023/10/28 06:58:45;;;;;;;1999.90;999.90;;;10.20;99.90;;;;;;5046418;28;20045;-67
2023/10/28 07:01:10;;;;;;;1999.90;999.90;;;10.30;99.90;;;;;;5048920;28;20049;-67
2023/10/28 07:03:37;;;;;;;1999.90;999.90;;;10.30;99.90;;;;;;5030326;28;20041;-67
2023/10/28 07:06:04;;;;;;;1999.90;999.90;;;10.30;99.90;;;;;;5042670;28;20103;-67
2023/10/28 07:08:30;;;;;;;1999.90;999.90;;;10.30;99.90;;;;;;5041953;28;20048;-66
2023/10/28 07:10:56;;;;;;;1999.90;999.90;;;10.30;99.90;;;;;;5040213;28;20044;-67
2023/10/28 07:13:21;;;;;;;1999.90;999.90;;;10.30;99.90;;;;;;5039660;28;20047;-67
2023/10/28 07:15:47;;;;;;;1999.90;999.90;;;10.40;99.90;;;;;;5032241;28;20041;-66
2023/10/28 07:18:13;;;;;;;1999.90;999.90;;;10.40;99.90;;;;;;5046379;28;20098;-67
2023/10/28 07:20:40;;;;;;;1999.90;999.90;;;10.40;99.90;;;;;;5034485;28;20069;-67
2023/10/28 07:23:06;;;;;;;1999.90;999.90;;;10.40;99.90;;;;;;5031106;28;20052;-67
2023/10/28 07:25:31;;;;;;;1999.90;999.90;;;10.40;99.90;;;;;;5031510;28;20041;-67
2023/10/28 07:27:57;;;;;;;1999.90;999.90;;;10.50;99.90;;;;;;5037466;28;20532;-67
2023/10/28 07:30:23;;;;;;;1999.90;999.90;;;10.50;99.90;;;;;;5032007;28;20037;-66
2023/10/28 07:32:49;;;;;;;1999.90;999.90;;;10.50;99.90;;;;;;5024015;28;20064;-66
2023/10/28 07:35:16;;;;;;;1999.90;999.90;;;10.50;99.90;;;;;;5052895;28;20520;-67
2023/10/28 07:37:42;;;;;;;1999.90;999.90;;;10.50;99.90;;;;;;5028885;28;20485;-67
2023/10/28 07:40:11;;;;;;;1999.90;999.90;;;10.60;99.90;;;;;;5046708;28;20048;-67
2023/10/28 07:42:36;;;;;;;1999.90;999.90;;;10.60;99.90;;;;;;5047238;28;20056;-66
2023/10/28 07:45:02;;;;;;;1999.90;999.90;;;10.70;99.90;;;;;;5046224;28;20043;-67
2023/10/28 07:47:28;;;;;;;1999.90;999.90;;;10.80;99.90;;;;;;5049160;28;20044;-66
2023/10/28 07:49:53;;;;;;;1999.90;999.90;;;10.80;99.90;;;;;;5043881;28;20041;-67
2023/10/28 07:52:19;;;;;;;1999.90;999.90;;;10.90;99.90;;;;;;5048805;28;20158;-67
2023/10/28 07:54:44;;;;;;;1999.90;999.90;;;10.90;99.90;;;;;;5034152;28;20202;-67
2023/10/28 07:57:10;;;;;;;1999.90;999.90;;;11.00;99.90;;;;;;5046006;28;20036;-68
2023/10/28 07:59:36;;;;;;;1999.90;999.90;;;11.00;99.90;;;;;;5053122;28;20099;-67
2023/10/28 08:02:02;;;;;;;1999.90;999.90;;;11.00;99.90;;;;;;5033160;28;20054;-66
2023/10/28 08:04:27;;;;;;;1999.90;999.90;;;11.00;99.90;;;;;;5047772;28;20557;-66
2023/10/28 08:06:53;;;;;;;1999.90;999.90;;;11.00;99.90;;;;;;5049050;28;20071;-67
2023/10/28 08:09:19;;;;;;;1999.90;999.90;;;11.00;99.90;;;;;;5051183;28;20370;-67
2023/10/28 08:11:44;;;;;;;1999.90;999.90;;;11.00;99.90;;;;;;5046554;28;20472;-67
2023/10/28 08:14:10;;;;;;;1999.90;999.90;;;11.10;99.90;;;;;;5043278;28;20441;-67
2023/10/28 08:16:36;;;;;;;1999.90;999.90;;;11.10;99.90;;;;;;5045614;28;20131;-66
2023/10/28 08:19:03;;;;;;;1999.90;999.90;;;11.10;99.90;;;;;;5033284;28;20042;-67
2023/10/28 08:21:29;;;;;;;1999.90;999.90;;;11.10;99.90;;;;;;5042853;28;20048;-66
2023/10/28 08:23:54;;;;;;;1999.90;999.90;;;11.00;99.90;;;;;;5019533;28;20033;-67
2023/10/28 08:26:20;;;;;;;1999.90;999.90;;;11.00;99.90;;;;;;5040015;28;20491;-66
2023/10/28 08:28:52;;;;;;;1999.90;999.90;;;11.00;99.90;;;;;;5036953;28;20041;-66
2023/10/28 08:31:18;;;;;;;1999.90;999.90;;;11.00;99.90;;;;;;5039071;28;20044;-66
2023/10/28 08:33:43;;;;;;;1999.90;999.90;;;10.90;99.90;;;;;;5041095;28;20091;-67
2023/10/28 08:36:10;;;;;;;1999.90;999.90;;;10.90;99.90;;;;;;5027199;28;20041;-67
2023/10/28 08:38:36;;;;;;;1999.90;999.90;;;10.90;99.90;;;;;;5038162;28;20075;-67
2023/10/28 08:41:03;;;;;;;1999.90;999.90;;;10.90;99.90;;;;;;5039425;28;20045;-67
2023/10/28 08:43:33;;;;;;;1999.90;999.90;;;10.90;99.90;;;;;;5033120;28;20041;-67
2023/10/28 08:46:01;;;;;;;1999.90;999.90;;;11.00;99.90;;;;;;5042832;28;20041;-67
2023/10/28 08:48:27;;;;;;;1999.90;999.90;;;11.00;99.90;;;;;;5048321;28;20098;-67
2023/10/28 08:50:55;;;;;;;1999.90;999.90;;;11.10;99.90;;;;;;5041609;28;20500;-67
2023/10/28 08:53:21;;;;;;;1999.90;999.90;;;11.10;99.90;;;;;;5035553;28;20448;-67
2023/10/28 08:55:50;;;;;;;1999.90;999.90;;;11.20;99.90;;;;;;5043049;28;20045;-67
2023/10/28 08:58:19;;;;;;;1999.90;999.90;;;11.20;99.90;;;;;;5044591;28;20049;-67
2023/10/28 09:00:47;;;;;;;1999.90;999.90;;;11.30;99.90;;;;;;5054624;28;20055;-67
2023/10/28 09:03:15;;;;;;;1999.90;999.90;;;11.30;99.90;;;;;;5043266;28;20555;-67
2023/10/28 09:05:41;;;;;;;1999.90;999.90;;;11.30;99.90;;;;;;5039353;28;20037;-67
2023/10/28 09:08:07;;;;;;;1999.90;999.90;;;11.30;99.90;;;;;;5018384;28;20045;-67
2023/10/28 09:10:34;;;;;;;1999.90;999.90;;;11.30;99.90;;;;;;5052618;28;20044;-67
2023/10/28 09:13:06;;;;;;;1999.90;999.90;;;11.30;99.90;;;;;;5042282;28;20045;-67
2023/10/28 09:15:32;;;;;;;1999.90;999.90;;;11.30;99.90;;;;;;5023477;28;20033;-67
2023/10/28 09:17:58;;;;;;;1999.90;999.90;;;11.40;99.90;;;;;;5041474;28;20057;-67
2023/10/28 09:20:24;;;;;;;1999.90;999.90;;;11.40;99.90;;;;;;5045260;28;20077;-67
2023/10/28 09:22:49;;;;;;;1999.90;999.90;;;11.40;99.90;;;;;;5041282;28;20076;-67
2023/10/28 09:25:15;;;;;;;1999.90;999.90;;;11.40;99.90;;;;;;5039326;28;20043;-67
2023/10/28 09:27:42;;;;;;;1999.90;999.90;;;11.40;99.90;;;;;;5042068;28;20069;-67
2023/10/28 09:30:11;;;;;;;1999.90;999.90;;;11.50;99.90;;;;;;5043333;28;20394;-67
2023/10/28 09:32:38;;;;;;;1999.90;999.90;;;11.50;99.90;;;;;;5032357;28;20041;-67
2023/10/28 09:35:08;;;;;;;1999.90;999.90;;;11.50;99.90;;;;;;5034281;28;20049;-67
2023/10/28 09:37:38;;;;;;;1999.90;999.90;;;11.50;99.90;;;;;;5045338;28;20056;-67
2023/10/28 09:40:08;;;;;;;1999.90;999.90;;;11.60;99.90;;;;;;5041975;28;20063;-67
2023/10/28 09:42:36;;;;;;;1999.90;999.90;;;11.60;99.90;;;;;;5042297;28;20096;-67
2023/10/28 09:45:06;;;;;;;1999.90;999.90;;;11.70;99.90;;;;;;5040954;28;20113;-67
2023/10/28 09:47:51;;;;;;;1999.90;999.90;;;11.70;99.90;;;;;;5041081;28;20126;-67
2023/10/28 09:50:20;;;;;;;1999.90;999.90;;;11.80;99.90;;;;;;5043169;28;20046;-67
2023/10/28 09:52:51;;;;;;;1999.90;999.90;;;11.90;99.90;;;;;;5026979;28;20165;-67
2023/10/28 09:55:21;;;;;;;1999.90;999.90;;;11.90;99.90;;;;;;5042693;28;20061;-67
2023/10/28 09:57:50;;;;;;;1999.90;999.90;;;11.90;99.90;;;;;;5040417;28;20037;-67
2023/10/28 10:00:19;;;;;;;1999.90;999.90;;;11.90;99.90;;;;;;5036522;28;20557;-66
2023/10/28 10:03:00;;;;;;;1999.90;999.90;;;11.90;99.90;;;;;;5043012;28;20055;-67
2023/10/28 10:05:32;;;;;;;1999.90;999.90;;;11.80;99.90;;;;;;5053960;28;20071;-67
2023/10/28 10:08:00;;;;;;;1999.90;999.90;;;11.80;99.90;;;;;;5052129;28;20516;-67
2023/10/28 10:10:26;;;;;;;1999.90;999.90;;;11.80;99.90;;;;;;5002918;28;20048;-67
2023/10/28 10:13:02;;;;;;;1999.90;999.90;;;11.80;99.90;;;;;;5039780;28;20060;-66
2023/10/28 10:15:32;;;;;;;1999.90;999.90;;;11.80;99.90;;;;;;5039889;28;20140;-67
2023/10/28 10:18:21;;;;;;;1999.90;999.90;;;11.80;99.90;;;;;;5037265;28;20102;-67
2023/10/28 10:20:47;;;;;;;1999.90;999.90;;;11.80;99.90;;;;;;5031489;28;20077;-67
2023/10/28 10:23:13;;;;;;;1999.90;999.90;;;11.80;99.90;;;;;;5044462;28;20072;-67
2023/10/28 10:25:43;;;;;;;1999.90;999.90;;;11.70;99.90;;;;;;5038619;28;20087;-67
2023/10/28 10:28:18;;;;;;;1999.90;999.90;;;11.80;99.90;;;;;;5038959;28;20029;-66
2023/10/28 10:30:44;;;;;;;1999.90;999.90;;;11.80;99.90;;;;;;5033015;28;20048;-67
2023/10/28 10:33:10;;;;;;;1999.90;999.90;;;11.90;99.90;;;;;;5032164;28;20831;-67
2023/10/28 10:35:36;;;;;;;1999.90;999.90;;;11.90;99.90;;;;;;5039430;28;20052;-67
2023/10/28 10:38:10;;;;;;;1999.90;999.90;;;11.90;99.90;;;;;;5054294;28;20072;-67
2023/10/28 10:40:35;;;;;;;1999.90;999.90;;;11.90;99.90;;;;;;5065149;28;20055;-66
2023/10/28 10:43:10;;;;;;;1999.90;999.90;;;11.90;99.90;;;;;;5045500;28;20394;-66
2023/10/28 10:45:36;;;;;;;1999.90;999.90;;;11.80;99.90;;;;;;5052052;28;20045;-67
2023/10/28 10:48:08;;;;;;;1999.90;999.90;;;11.70;99.90;;;;;;5051682;28;20041;-67
2023/10/28 10:50:37;;;;;;;1999.90;999.90;;;11.80;99.90;;;;;;5048469;28;20057;-67
2023/10/28 10:53:03;;;;;;;1999.90;999.90;;;11.80;99.90;;;;;;5041279;28;20765;-66
2023/10/28 10:55:30;;;;;;;1999.90;999.90;;;11.80;99.90;;;;;;5054650;28;20497;-67
2023/10/28 10:57:56;;;;;;;1999.90;999.90;;;11.90;99.90;;;;;;5030589;28;20048;-67
2023/10/28 11:00:23;;;;;;;1999.90;999.90;;;11.90;99.90;;;;;;5037667;28;20041;-67
2023/10/28 11:02:49;;;;;;;1999.90;999.90;;;11.90;99.90;;;;;;5039322;28;20067;-66
2023/10/28 11:05:16;;;;;;;1999.90;999.90;;;11.90;99.90;;;;;;5029386;28;20045;-67
2023/10/28 11:07:43;;;;;;;1999.90;999.90;;;12.00;99.90;;;;;;5055531;28;20155;-67
2023/10/28 11:10:09;;;;;;;1999.90;999.90;;;12.10;99.90;;;;;;5040856;28;20041;-66
2023/10/28 11:12:38;;;;;;;1999.90;999.90;;;12.30;99.90;;;;;;5045600;28;20049;-66
2023/10/28 11:15:05;;;;;;;1999.90;999.90;;;12.30;99.90;;;;;;5033965;28;20041;-67
2023/10/28 11:17:31;;;;;;;1999.90;999.90;;;12.40;99.90;;;;;;5042751;28;20042;-67
2023/10/28 11:20:00;;;;;;;1999.90;999.90;;;12.50;99.90;;;;;;5044856;28;20102;-67
2023/10/28 11:22:26;;;;;;;1999.90;999.90;;;12.50;99.90;;;;;;5025316;28;20064;-67
2023/10/28 11:24:55;;;;;;;1999.90;999.90;;;12.50;99.90;;;;;;5043021;28;20049;-67
2023/10/28 11:27:23;;;;;;;1999.90;999.90;;;12.50;99.90;;;;;;5044199;28;20076;-67
2023/10/28 11:29:58;;;;;;;1999.90;999.90;;;12.50;99.90;;;;;;5041209;28;20147;-67
2023/10/28 11:32:28;;;;;;;1999.90;999.90;;;12.50;99.90;;;;;;5045068;28;20048;-67
2023/10/28 11:34:56;;;;;;;1999.90;999.90;;;12.50;99.90;;;;;;5037155;28;20519;-67
2023/10/28 11:37:23;;;;;;;1999.90;999.90;;;12.60;99.90;;;;;;5041210;28;20049;-67
2023/10/28 11:39:49;;;;;;;1999.90;999.90;;;12.60;99.90;;;;;;5035352;28;20468;-67
2023/10/28 11:42:17;;;;;;;1999.90;999.90;;;12.60;99.90;;;;;;5043432;28;20281;-67
2023/10/28 11:44:48;;;;;;;1999.90;999.90;;;12.50;99.90;;;;;;5039972;28;20045;-67
2023/10/28 11:47:14;;;;;;;1999.90;999.90;;;12.50;99.90;;;;;;5042268;28;20072;-67
2023/10/28 11:49:39;;;;;;;1999.90;999.90;;;12.50;99.90;;;;;;5032587;28;20080;-67
2023/10/28 11:52:05;;;;;;;1999.90;999.90;;;12.40;99.90;;;;;;5041449;28;20139;-67
2023/10/28 11:54:33;;;;;;;1999.90;999.90;;;12.40;99.90;;;;;;5045653;28;20043;-66
2023/10/28 11:56:59;;;;;;;1999.90;999.90;;;12.40;99.90;;;;;;5054758;28;20068;-67
2023/10/28 11:59:24;;;;;;;1999.90;999.90;;;12.40;99.90;;;;;;5048671;28;20054;-67